<?xml version="1.0" encoding="utf-8"?>
<gpx xmlns:xsi="http://www.w3.org/2001/XMLSchema-instance" xmlns:xsd="http://www.w3.org/2001/XMLSchema" version="1.1" creator="Shapelink.com" xmlns="http://www.topografix.com/GPX/1/1" xmlns:gpxtpx="http://www.garmin.com/xmlschemas/TrackPointExtension/v1">
  <metadata>
    <name>Övrigt 2.31 km, 2019-05-20</name>
    <desc></desc>
    <author><name>Marian Moron</name></author> 
    <time>2019-05-20T20:49:17Z</time>
  </metadata>
  <trk>
    <name>Övrigt 2.31 km, 2019-05-20</name>
    <trkseg>
      <trkpt lat="51.229840792941" lon="4.457782673541">
        <ele>10.8</ele>
        <time>2019-05-20T20:49:17Z</time>
      </trkpt>
      <trkpt lat="51.229945315234" lon="4.458016947646">
        <ele>12.6</ele>
        <time>2019-05-20T20:49:35Z</time>
      </trkpt>
      <trkpt lat="51.229987895286" lon="4.458383320495">
        <ele>14.6</ele>
        <time>2019-05-20T20:49:57Z</time>
      </trkpt>
      <trkpt lat="51.23000348562" lon="4.458907440702">
        <ele>10.6</ele>
        <time>2019-05-20T20:50:32Z</time>
      </trkpt>
      <trkpt lat="51.23015855077" lon="4.458994696281">
        <ele>3.6</ele>
        <time>2019-05-20T20:51:18Z</time>
      </trkpt>
      <trkpt lat="51.230372708315" lon="4.459036102867">
        <ele>1.4</ele>
        <time>2019-05-20T20:52:22Z</time>
      </trkpt>
      <trkpt lat="51.230416126557" lon="4.459246153281">
        <ele>0.8</ele>
        <time>2019-05-20T20:52:41Z</time>
      </trkpt>
      <trkpt lat="51.23046197555" lon="4.459485372707">
        <ele>0.4</ele>
        <time>2019-05-20T20:52:51Z</time>
      </trkpt>
      <trkpt lat="51.230540346315" lon="4.45962677536">
        <ele>0.8</ele>
        <time>2019-05-20T20:53:15Z</time>
      </trkpt>
      <trkpt lat="51.230625841695" lon="4.459757616819">
        <ele>1.6</ele>
        <time>2019-05-20T20:53:25Z</time>
      </trkpt>
      <trkpt lat="51.230619387632" lon="4.460027094904">
        <ele>1.4</ele>
        <time>2019-05-20T20:53:42Z</time>
      </trkpt>
      <trkpt lat="51.230625003505" lon="4.460701502578">
        <ele>0</ele>
        <time>2019-05-20T20:54:38Z</time>
      </trkpt>
      <trkpt lat="51.230607317696" lon="4.460711225582">
        <ele>0</ele>
        <time>2019-05-20T20:54:40Z</time>
      </trkpt>
      <trkpt lat="51.230166178299" lon="4.460886826387">
        <ele>0.4</ele>
        <time>2019-05-20T20:55:06Z</time>
      </trkpt>
      <trkpt lat="51.229725960911" lon="4.461046920677">
        <ele>3.6</ele>
        <time>2019-05-20T20:55:26Z</time>
      </trkpt>
      <trkpt lat="51.229610709786" lon="4.461127386917">
        <ele>3.2</ele>
        <time>2019-05-20T20:55:42Z</time>
      </trkpt>
      <trkpt lat="51.229160350299" lon="4.461123531243">
        <ele>0</ele>
        <time>2019-05-20T20:56:02Z</time>
      </trkpt>
      <trkpt lat="51.228701441274" lon="4.461290666329">
        <ele>16.2</ele>
        <time>2019-05-20T20:56:20Z</time>
      </trkpt>
      <trkpt lat="51.228373289889" lon="4.460909457517">
        <ele>7.8</ele>
        <time>2019-05-20T20:56:53Z</time>
      </trkpt>
      <trkpt lat="51.228039857907" lon="4.460490027241">
        <ele>0</ele>
        <time>2019-05-20T20:57:14Z</time>
      </trkpt>
      <trkpt lat="51.22784766094" lon="4.460701418759">
        <ele>0</ele>
        <time>2019-05-20T20:57:25Z</time>
      </trkpt>
      <trkpt lat="51.227839614316" lon="4.460995288173">
        <ele>0</ele>
        <time>2019-05-20T20:57:40Z</time>
      </trkpt>
      <trkpt lat="51.22785604284" lon="4.461317907504">
        <ele>10.8</ele>
        <time>2019-05-20T20:58:09Z</time>
      </trkpt>
      <trkpt lat="51.227894012847" lon="4.462029195538">
        <ele>9</ele>
        <time>2019-05-20T20:58:30Z</time>
      </trkpt>
      <trkpt lat="51.227965258997" lon="4.462752134413">
        <ele>0</ele>
        <time>2019-05-20T20:58:51Z</time>
      </trkpt>
      <trkpt lat="51.227923181859" lon="4.462938296412">
        <ele>0</ele>
        <time>2019-05-20T20:59:04Z</time>
      </trkpt>
      <trkpt lat="51.227915051416" lon="4.463675400698">
        <ele>0</ele>
        <time>2019-05-20T20:59:27Z</time>
      </trkpt>
      <trkpt lat="51.227932150492" lon="4.46390322074">
        <ele>5</ele>
        <time>2019-05-20T20:59:40Z</time>
      </trkpt>
      <trkpt lat="51.227933575415" lon="4.464655160989">
        <ele>0.2</ele>
        <time>2019-05-20T21:00:02Z</time>
      </trkpt>
      <trkpt lat="51.227957547649" lon="4.465390421257">
        <ele>0</ele>
        <time>2019-05-20T21:00:21Z</time>
      </trkpt>
      <trkpt lat="51.22799518238" lon="4.465584126966">
        <ele>4.4</ele>
        <time>2019-05-20T21:00:31Z</time>
      </trkpt>
      <trkpt lat="51.228024435211" lon="4.465733240967">
        <ele>5</ele>
        <time>2019-05-20T21:00:40Z</time>
      </trkpt>
      <trkpt lat="51.228045976694" lon="4.466176475839">
        <ele>6</ele>
        <time>2019-05-20T21:01:02Z</time>
      </trkpt>
      <trkpt lat="51.228139518698" lon="4.466099362359">
        <ele>4</ele>
        <time>2019-05-20T21:01:17Z</time>
      </trkpt>
      <trkpt lat="51.228515195456" lon="4.465652858546">
        <ele>4.6</ele>
        <time>2019-05-20T21:01:40Z</time>
      </trkpt>
      <trkpt lat="51.228568001426" lon="4.464928075653">
        <ele>1.6</ele>
        <time>2019-05-20T21:01:58Z</time>
      </trkpt>
      <trkpt lat="51.22858610633" lon="4.464226845899">
        <ele>0</ele>
        <time>2019-05-20T21:02:15Z</time>
      </trkpt>
      <trkpt lat="51.228637906472" lon="4.464169597522">
        <ele>0</ele>
        <time>2019-05-20T21:02:28Z</time>
      </trkpt>
      <trkpt lat="51.228682246723" lon="4.464155096835">
        <ele>0</ele>
        <time>2019-05-20T21:02:31Z</time>
      </trkpt>
      <trkpt lat="51.229071585978" lon="4.464102123227">
        <ele>0</ele>
        <time>2019-05-20T21:02:53Z</time>
      </trkpt>
      <trkpt lat="51.229095977307" lon="4.464061890107">
        <ele>0</ele>
        <time>2019-05-20T21:02:56Z</time>
      </trkpt>
      <trkpt lat="51.229236038856" lon="4.463997768572">
        <ele>0</ele>
        <time>2019-05-20T21:03:06Z</time>
      </trkpt>
      <trkpt lat="51.229268476809" lon="4.464002713893">
        <ele>0</ele>
        <time>2019-05-20T21:03:08Z</time>
      </trkpt>
      <trkpt lat="51.229383392658" lon="4.464026853765">
        <ele>0</ele>
        <time>2019-05-20T21:03:29Z</time>
      </trkpt>
      <trkpt lat="51.229844648615" lon="4.463987375016">
        <ele>0.4</ele>
        <time>2019-05-20T21:03:51Z</time>
      </trkpt>
      <trkpt lat="51.230251170765" lon="4.463755447843">
        <ele>0</ele>
        <time>2019-05-20T21:04:28Z</time>
      </trkpt>
      <trkpt lat="51.23028008832" lon="4.46373558274">
        <ele>0</ele>
        <time>2019-05-20T21:04:31Z</time>
      </trkpt>
      <trkpt lat="51.23032618877" lon="4.463664168952">
        <ele>0</ele>
        <time>2019-05-20T21:04:45Z</time>
      </trkpt>
      <trkpt lat="51.23028763203" lon="4.463453783262">
        <ele>0</ele>
        <time>2019-05-20T21:05:36Z</time>
      </trkpt>
      <trkpt lat="51.230252260412" lon="4.463317409749">
        <ele>2.4</ele>
        <time>2019-05-20T21:05:55Z</time>
      </trkpt>
      <trkpt lat="51.230145642644" lon="4.462926394114">
        <ele>0</ele>
        <time>2019-05-20T21:06:17Z</time>
      </trkpt>
      <trkpt lat="51.230075653779" lon="4.462779710864">
        <ele>5.6</ele>
        <time>2019-05-20T21:06:49Z</time>
      </trkpt>
      <trkpt lat="51.230035085383" lon="4.462626992646">
        <ele>6.6</ele>
        <time>2019-05-20T21:07:01Z</time>
      </trkpt>
      <trkpt lat="51.229962581948" lon="4.462479555025">
        <ele>7.8</ele>
        <time>2019-05-20T21:07:10Z</time>
      </trkpt>
      <trkpt lat="51.229847330823" lon="4.462031207194">
        <ele>5.6</ele>
        <time>2019-05-20T21:07:34Z</time>
      </trkpt>
      <trkpt lat="51.229741886521" lon="4.461340957729">
        <ele>4.8</ele>
        <time>2019-05-20T21:08:05Z</time>
      </trkpt>
      <trkpt lat="51.229662593747" lon="4.461137026102">
        <ele>3.2</ele>
        <time>2019-05-20T21:08:14Z</time>
      </trkpt>
      <trkpt lat="51.229207540396" lon="4.46120005799">
        <ele>3.8</ele>
        <time>2019-05-20T21:08:48Z</time>
      </trkpt>
      <trkpt lat="51.228854159492" lon="4.461228891726">
        <ele>12.6</ele>
        <time>2019-05-20T21:09:12Z</time>
      </trkpt>
      <trkpt lat="51.22871015845" lon="4.461281530058">
        <ele>21</ele>
        <time>2019-05-20T21:09:24Z</time>
      </trkpt>
      <trkpt lat="51.228628770201" lon="4.46132159554">
        <ele>18.6</ele>
        <time>2019-05-20T21:09:34Z</time>
      </trkpt>
      <trkpt lat="51.228453588491" lon="4.461183461828">
        <ele>10</ele>
        <time>2019-05-20T21:09:50Z</time>
      </trkpt>
      <trkpt lat="51.228429113343" lon="4.461167033304">
        <ele>9.4</ele>
        <time>2019-05-20T21:09:53Z</time>
      </trkpt>
      <trkpt lat="51.228189055727" lon="4.460559010278">
        <ele>7</ele>
        <time>2019-05-20T21:10:32Z</time>
      </trkpt>
      <trkpt lat="51.228208501735" lon="4.460433449416">
        <ele>5.2</ele>
        <time>2019-05-20T21:10:38Z</time>
      </trkpt>
      <trkpt lat="51.228224175888" lon="4.460361700352">
        <ele>3.6</ele>
        <time>2019-05-20T21:10:43Z</time>
      </trkpt>
      <trkpt lat="51.228315790055" lon="4.460275869696">
        <ele>0.4</ele>
        <time>2019-05-20T21:10:55Z</time>
      </trkpt>
      <trkpt lat="51.228363399247" lon="4.460115943044">
        <ele>3</ele>
        <time>2019-05-20T21:11:08Z</time>
      </trkpt>
      <trkpt lat="51.228458869088" lon="4.45942309519">
        <ele>6.4</ele>
        <time>2019-05-20T21:11:47Z</time>
      </trkpt>
      <trkpt lat="51.228637906472" lon="4.459082370955">
        <ele>5</ele>
        <time>2019-05-20T21:12:10Z</time>
      </trkpt>
      <trkpt lat="51.22862717764" lon="4.45889000635">
        <ele>4.6</ele>
        <time>2019-05-20T21:12:19Z</time>
      </trkpt>
      <trkpt lat="51.228639666671" lon="4.458174443547">
        <ele>5.2</ele>
        <time>2019-05-20T21:12:46Z</time>
      </trkpt>
      <trkpt lat="51.228688197872" lon="4.458150890408">
        <ele>5.6</ele>
        <time>2019-05-20T21:12:49Z</time>
      </trkpt>
      <trkpt lat="51.228787104292" lon="4.458165558733">
        <ele>5</ele>
        <time>2019-05-20T21:13:00Z</time>
      </trkpt>
      <trkpt lat="51.228971086997" lon="4.458111830754">
        <ele>9.4</ele>
        <time>2019-05-20T21:13:13Z</time>
      </trkpt>
      <trkpt lat="51.229027664822" lon="4.458098503533">
        <ele>12.2</ele>
        <time>2019-05-20T21:13:18Z</time>
      </trkpt>
      <trkpt lat="51.229476431748" lon="4.458029101401">
        <ele>11.6</ele>
        <time>2019-05-20T21:13:38Z</time>
      </trkpt>
      <trkpt lat="51.229680195737" lon="4.457915023742">
        <ele>7.4</ele>
        <time>2019-05-20T21:14:19Z</time>
      </trkpt>
      <trkpt lat="51.22976460147" lon="4.457254027108">
        <ele>10.6</ele>
        <time>2019-05-20T21:14:51Z</time>
      </trkpt>
      <trkpt lat="51.229626886853" lon="4.456633850327">
        <ele>6</ele>
        <time>2019-05-20T21:15:21Z</time>
      </trkpt>
      <trkpt lat="51.229637783323" lon="4.45670400683">
        <ele>5.6</ele>
        <time>2019-05-20T21:15:27Z</time>
      </trkpt>
      <trkpt lat="51.229719003934" lon="4.456851779727">
        <ele>2</ele>
        <time>2019-05-20T21:15:44Z</time>
      </trkpt>
      <trkpt lat="51.22983668581" lon="4.457540017536">
        <ele>2.8</ele>
        <time>2019-05-20T21:16:11Z</time>
      </trkpt>
      <trkpt lat="51.229846157357" lon="4.457874371527">
        <ele>0</ele>
        <time>2019-05-20T21:16:28Z</time>
      </trkpt>
      <trkpt lat="51.229738701399" lon="4.45792944061">
        <ele>2</ele>
        <time>2019-05-20T21:16:37Z</time>
      </trkpt>
    </trkseg>
  </trk>
</gpx>